Friendship, Tennessee
Current Conditions -  °F | °C
As of 11:55 PM on Friday 19 Dec 2014 (Local Time) from KDYR Reporting Station
Overcast Overcast  
Wind Chill: 37°   Ceiling: 6500
Heat Index: 37°   Visibility: 10mi
Dew Point: 23°   Wind: 3mph
Humidity: 56%   Direction: 50°NE
Pressure: 30.26"   Gusts: NA
Location:  35.91°N, 89.25°W
Report Text: KDYR 200555Z 05003KT 10SM BKN065 OVC110 03/M05 A3026 RMK AO1 10040 20030 54000
Loading
Personal Weather Stations






























Interactive Weather Map New forecast layout! Learn more

10-Day Weather Forecast

Advertisements
Track Severe Weather on mobile